LFLLLSGS

Guest
Details From LFLL - Lyon Saint Exupery
To LSGS - Sion
Flight Number -
Tags generated
Created
Modified
Stats Distance 98 nm / 181 km
Max Altitude 7,100 ft / 2,164 m
Waypoints 3
Social Downloads 3
Likes 0
Share VATSIM

Download

Looking for another format? Having issues loading an existing format? Contact us
Advertisement - Login to hide

Notes

Basic altitude profile: - Ascent Rate: 2500ft/min - Ascent Speed: 250kts - Cruise Altitude: 35000ft - Cruise Speed: 420kts - Descent Rate: 1500ft/min - Descent Speed: 250kts

Route

LFLL GOLEB LSGS

ID Type Via Altitude Latitude Longitude Leg Dist Tot Dist Heading (true) Name
O LFLL APT - 0 ft / 0 m 45.72581˚ 5.09075˚ - 0 nm - Lyon Saint Exupery
GOLEB FIX - 7,100 ft / 2,164 m 46.05167˚ 6.56250˚ 64 nm 64 nm 72° / 73° -
O LSGS APT - 0 ft / 0 m 46.21895˚ 7.32409˚ 33 nm 97 nm 72° / 73° Sion

Altitude Profile

Advertisement - Login to hide

LFLL

Details ICAO LFLL (LYS)
Name Lyon Saint Exupery
Region France
Timezone Europe/Paris (UTC+2.0)
Stats Elevation 820 ft / 250 m (AMSL)
Location 45.725812° 5.090748°
Runways 2
Magnetic Variation 1.541° E

METAR

LFLL 250500Z VRB02KT CAVOK 16/12 Q1017 NOSIG

Decode

TAF

TAF LFLL 242300Z 2500/2606 15005KT CAVOK= TAF LFPO 242300Z 2500/2606 36003KT CAVOK PROB30 TEMPO 2503/2507 3000 BR BKN005 BECMG 2508/2511 04006KT 9999 SCT040 TEMPO 2514/2523 SHRA SCT050CB PROB30 TEMPO 2515/2523 06015G25KT 2000 -TSRAGR BKN050CB

Decode

Departure Runways

ID Width Length Bearing (true) Bearing (mag) Surface Threshold Offset Overrun Length
18L 148 ft / 45 m 8,798 ft / 2,682 m 175.13° 173.59° Asphalt 33 ft / 10 m 52 ft / 16 m
18R 148 ft / 45 m 13,149 ft / 4,008 m 175.14° 173.60° Asphalt 16 ft / 5 m 203 ft / 62 m
36L 148 ft / 45 m 13,149 ft / 4,008 m 355.15° 353.61° Asphalt 36 ft / 11 m 151 ft / 46 m
36R 148 ft / 45 m 8,798 ft / 2,682 m 355.13° 353.59° Asphalt 26 ft / 8 m 52 ft / 16 m

LSGS

Details ICAO LSGS (SIR)
Name Sion
Region Switzerland
Timezone Europe/Zurich (UTC+2.0)
Stats Elevation 1,585 ft / 483 m (AMSL)
Location 46.218954° 7.324090°
Runways 2
Magnetic Variation 2.095° E

METAR

LSGS 250520Z 07005KT CAVOK 15/08 Q1019

Decode

TAF

Not found

Destination Runways

ID Width Length Bearing (true) Bearing (mag) Surface Threshold Offset Overrun Length
07L 98 ft / 30 m 2,167 ft / 661 m 72.83° 70.73° Grass 0 ft / 0 m 0 ft / 0 m
07R 131 ft / 40 m 6,605 ft / 2,013 m 72.84° 70.74° Asphalt 164 ft / 50 m 627 ft / 191 m
25L 131 ft / 40 m 6,605 ft / 2,013 m 252.86° 250.76° Asphalt 164 ft / 50 m 627 ft / 191 m
25R 98 ft / 30 m 2,167 ft / 661 m 252.83° 250.73° Grass 328 ft / 100 m 0 ft / 0 m

Approach Navaids

Runway Type Ident Frequency Range Bearing (true) Bearing (mag) Slope Elevation
25L Localiser ISI 110.70 MHz 45 nm / 83 km 246.48° 244.38° - 1,609 ft / 490 m (AMSL)
25L Glidescope ISI 110.70 MHz 45 nm / 83 km 246.48° 244.38° 6.00° 1,595 ft / 486 m (AMSL)
25L DME ISI 108.35 MHz 45 nm / 83 km - - - 1,609 ft / 490 m (AMSL)

Popular Alternatives